Airport View

Enter AWOS ICAO identifier for current METAR.

ex. KFNL

KCGZ 290456Z AUTO 08010KT 10SM CLR 31/02 A2995 RMK AO2 SLP125 T03060022

29 Sep 2020 05:34

Frequency: 132.175

Phone: 520-836-3392

Other Area AWOS: KA39 - KCHD - KIWA - KFFZ

TAF KIWA 282329Z 2900/2924 VRB05KT P6SM SKC FM290300 10009KT P6SM SKC FM291600 11012G19KT P6SM SKC FM291900 13008KT P6SM SKC